sensor_id;sensor_type;location;lat;lon;timestamp;P1;durP1;ratioP1;P2;durP2;ratioP2
23838;SDS011;12100;44.384;20.272;2022-08-20T00:01:43;12.50;;;5.25;;
23838;SDS011;12100;44.384;20.272;2022-08-20T00:04:10;10.80;;;4.68;;
23838;SDS011;12100;44.384;20.272;2022-08-20T00:06:36;16.73;;;5.13;;
23838;SDS011;12100;44.384;20.272;2022-08-20T00:09:02;21.58;;;5.95;;
23838;SDS011;12100;44.384;20.272;2022-08-20T00:11:28;12.70;;;5.55;;
23838;SDS011;12100;44.384;20.272;2022-08-20T00:13:58;11.93;;;4.80;;
23838;SDS011;12100;44.384;20.272;2022-08-20T00:16:27;13.73;;;5.38;;
23838;SDS011;12100;44.384;20.272;2022-08-20T00:18:58;12.93;;;4.95;;
23838;SDS011;12100;44.384;20.272;2022-08-20T00:21:24;15.65;;;5.30;;
23838;SDS011;12100;44.384;20.272;2022-08-20T00:23:51;13.77;;;4.78;;
23838;SDS011;12100;44.384;20.272;2022-08-20T00:26:19;12.98;;;5.72;;
23838;SDS011;12100;44.384;20.272;2022-08-20T00:28:46;19.80;;;5.40;;
23838;SDS011;12100;44.384;20.272;2022-08-20T00:31:14;11.38;;;5.25;;
23838;SDS011;12100;44.384;20.272;2022-08-20T00:33:42;18.40;;;5.82;;
23838;SDS011;12100;44.384;20.272;2022-08-20T00:36:08;15.57;;;5.35;;
23838;SDS011;12100;44.384;20.272;2022-08-20T00:38:36;11.82;;;5.07;;
23838;SDS011;12100;44.384;20.272;2022-08-20T00:41:05;15.32;;;5.00;;
23838;SDS011;12100;44.384;20.272;2022-08-20T00:43:37;15.68;;;6.20;;
23838;SDS011;12100;44.384;20.272;2022-08-20T00:46:06;17.05;;;5.63;;
23838;SDS011;12100;44.384;20.272;2022-08-20T00:48:35;19.58;;;5.75;;
23838;SDS011;12100;44.384;20.272;2022-08-20T00:51:07;12.82;;;5.07;;
23838;SDS011;12100;44.384;20.272;2022-08-20T00:53:33;6.57;;;4.15;;
23838;SDS011;12100;44.384;20.272;2022-08-20T00:56:01;12.38;;;5.95;;
23838;SDS011;12100;44.384;20.272;2022-08-20T00:58:28;13.02;;;5.00;;
23838;SDS011;12100;44.384;20.272;2022-08-20T01:00:54;20.27;;;5.20;;
23838;SDS011;12100;44.384;20.272;2022-08-20T01:03:21;16.75;;;5.63;;
23838;SDS011;12100;44.384;20.272;2022-08-20T01:05:48;15.82;;;5.90;;
23838;SDS011;12100;44.384;20.272;2022-08-20T01:08:15;15.82;;;6.57;;
23838;SDS011;12100;44.384;20.272;2022-08-20T01:10:44;13.52;;;6.03;;
23838;SDS011;12100;44.384;20.272;2022-08-20T01:13:13;9.85;;;5.03;;
23838;SDS011;12100;44.384;20.272;2022-08-20T01:15:43;16.70;;;6.72;;
23838;SDS011;12100;44.384;20.272;2022-08-20T01:18:12;14.40;;;5.90;;
23838;SDS011;12100;44.384;20.272;2022-08-20T01:20:45;11.35;;;5.78;;
23838;SDS011;12100;44.384;20.272;2022-08-20T01:26:02;14.63;;;6.78;;
23838;SDS011;12100;44.384;20.272;2022-08-20T01:28:46;16.10;;;6.30;;
23838;SDS011;12100;44.384;20.272;2022-08-20T01:31:17;16.35;;;5.95;;
23838;SDS011;12100;44.384;20.272;2022-08-20T01:33:45;21.40;;;6.20;;
23838;SDS011;12100;44.384;20.272;2022-08-20T01:36:13;16.40;;;6.13;;
23838;SDS011;12100;44.384;20.272;2022-08-20T01:38:40;15.95;;;7.00;;
23838;SDS011;12100;44.384;20.272;2022-08-20T01:43:51;17.42;;;7.35;;
23838;SDS011;12100;44.384;20.272;2022-08-20T01:46:33;16.10;;;6.63;;
23838;SDS011;12100;44.384;20.272;2022-08-20T01:49:11;16.77;;;6.93;;
23838;SDS011;12100;44.384;20.272;2022-08-20T01:51:44;13.23;;;6.32;;
23838;SDS011;12100;44.384;20.272;2022-08-20T01:54:10;20.60;;;7.07;;
23838;SDS011;12100;44.384;20.272;2022-08-20T01:56:49;19.48;;;7.57;;
23838;SDS011;12100;44.384;20.272;2022-08-20T01:59:17;15.75;;;6.18;;
23838;SDS011;12100;44.384;20.272;2022-08-20T02:01:43;15.57;;;6.65;;
23838;SDS011;12100;44.384;20.272;2022-08-20T02:04:09;19.63;;;6.68;;
23838;SDS011;12100;44.384;20.272;2022-08-20T02:06:41;14.57;;;7.13;;
23838;SDS011;12100;44.384;20.272;2022-08-20T02:11:35;18.67;;;7.35;;
23838;SDS011;12100;44.384;20.272;2022-08-20T02:14:02;16.40;;;7.28;;
23838;SDS011;12100;44.384;20.272;2022-08-20T02:16:32;12.13;;;6.65;;
23838;SDS011;12100;44.384;20.272;2022-08-20T02:19:02;16.83;;;6.32;;
23838;SDS011;12100;44.384;20.272;2022-08-20T02:21:37;15.07;;;7.35;;
23838;SDS011;12100;44.384;20.272;2022-08-20T02:24:08;15.80;;;7.83;;
23838;SDS011;12100;44.384;20.272;2022-08-20T02:26:35;17.25;;;7.05;;
23838;SDS011;12100;44.384;20.272;2022-08-20T02:29:05;17.33;;;6.20;;
23838;SDS011;12100;44.384;20.272;2022-08-20T02:31:33;14.88;;;7.68;;
23838;SDS011;12100;44.384;20.272;2022-08-20T02:34:00;15.65;;;6.75;;
23838;SDS011;12100;44.384;20.272;2022-08-20T02:36:27;12.82;;;7.00;;
23838;SDS011;12100;44.384;20.272;2022-08-20T02:38:53;15.02;;;7.05;;
23838;SDS011;12100;44.384;20.272;2022-08-20T02:41:18;18.83;;;7.03;;
23838;SDS011;12100;44.384;20.272;2022-08-20T02:43:46;13.57;;;6.80;;
23838;SDS011;12100;44.384;20.272;2022-08-20T02:46:13;11.77;;;7.18;;
23838;SDS011;12100;44.384;20.272;2022-08-20T02:48:40;12.10;;;6.72;;
23838;SDS011;12100;44.384;20.272;2022-08-20T02:51:06;15.20;;;7.97;;
23838;SDS011;12100;44.384;20.272;2022-08-20T02:53:34;18.45;;;7.35;;
23838;SDS011;12100;44.384;20.272;2022-08-20T02:56:03;15.65;;;6.85;;
23838;SDS011;12100;44.384;20.272;2022-08-20T02:58:32;14.65;;;7.82;;
23838;SDS011;12100;44.384;20.272;2022-08-20T03:00:59;12.68;;;6.95;;
23838;SDS011;12100;44.384;20.272;2022-08-20T03:03:26;12.60;;;7.30;;
23838;SDS011;12100;44.384;20.272;2022-08-20T03:05:53;14.57;;;7.28;;
23838;SDS011;12100;44.384;20.272;2022-08-20T03:08:21;13.98;;;7.25;;
23838;SDS011;12100;44.384;20.272;2022-08-20T03:10:48;17.17;;;7.22;;
23838;SDS011;12100;44.384;20.272;2022-08-20T03:13:16;11.68;;;7.88;;
23838;SDS011;12100;44.384;20.272;2022-08-20T03:15:44;16.40;;;8.23;;
23838;SDS011;12100;44.384;20.272;2022-08-20T03:18:12;11.57;;;7.85;;
23838;SDS011;12100;44.384;20.272;2022-08-20T03:20:39;15.52;;;8.40;;
23838;SDS011;12100;44.384;20.272;2022-08-20T03:23:05;18.10;;;8.20;;
23838;SDS011;12100;44.384;20.272;2022-08-20T03:25:31;17.95;;;8.70;;
23838;SDS011;12100;44.384;20.272;2022-08-20T03:27:57;16.20;;;7.45;;
23838;SDS011;12100;44.384;20.272;2022-08-20T03:30:24;13.93;;;7.07;;
23838;SDS011;12100;44.384;20.272;2022-08-20T03:32:51;15.27;;;7.57;;
23838;SDS011;12100;44.384;20.272;2022-08-20T03:35:18;14.07;;;7.88;;
23838;SDS011;12100;44.384;20.272;2022-08-20T03:37:45;12.32;;;7.20;;
23838;SDS011;12100;44.384;20.272;2022-08-20T03:40:13;16.63;;;7.90;;
23838;SDS011;12100;44.384;20.272;2022-08-20T03:42:45;12.32;;;6.72;;
23838;SDS011;12100;44.384;20.272;2022-08-20T03:45:11;16.13;;;6.60;;
23838;SDS011;12100;44.384;20.272;2022-08-20T03:47:38;12.30;;;6.15;;
23838;SDS011;12100;44.384;20.272;2022-08-20T03:50:05;11.57;;;5.75;;
23838;SDS011;12100;44.384;20.272;2022-08-20T03:52:33;13.75;;;5.95;;
23838;SDS011;12100;44.384;20.272;2022-08-20T03:54:58;9.73;;;5.47;;
23838;SDS011;12100;44.384;20.272;2022-08-20T03:57:24;10.43;;;5.57;;
23838;SDS011;12100;44.384;20.272;2022-08-20T03:59:51;9.80;;;5.63;;
23838;SDS011;12100;44.384;20.272;2022-08-20T04:02:17;13.15;;;5.85;;
23838;SDS011;12100;44.384;20.272;2022-08-20T04:04:43;11.38;;;5.80;;
23838;SDS011;12100;44.384;20.272;2022-08-20T04:07:10;13.60;;;6.63;;
23838;SDS011;12100;44.384;20.272;2022-08-20T04:09:41;11.73;;;6.28;;
23838;SDS011;12100;44.384;20.272;2022-08-20T04:12:10;12.77;;;6.07;;
23838;SDS011;12100;44.384;20.272;2022-08-20T04:14:38;11.10;;;6.18;;
23838;SDS011;12100;44.384;20.272;2022-08-20T04:17:05;13.27;;;6.03;;
23838;SDS011;12100;44.384;20.272;2022-08-20T04:19:32;13.18;;;6.07;;
23838;SDS011;12100;44.384;20.272;2022-08-20T04:21:59;12.98;;;6.50;;
23838;SDS011;12100;44.384;20.272;2022-08-20T04:24:25;14.90;;;7.07;;
23838;SDS011;12100;44.384;20.272;2022-08-20T04:26:51;19.10;;;7.15;;
23838;SDS011;12100;44.384;20.272;2022-08-20T04:29:19;16.98;;;7.13;;
23838;SDS011;12100;44.384;20.272;2022-08-20T04:31:46;23.70;;;7.72;;
23838;SDS011;12100;44.384;20.272;2022-08-20T04:34:12;10.98;;;6.32;;
23838;SDS011;12100;44.384;20.272;2022-08-20T04:36:38;14.38;;;6.65;;
23838;SDS011;12100;44.384;20.272;2022-08-20T04:39:04;15.88;;;6.25;;
23838;SDS011;12100;44.384;20.272;2022-08-20T04:41:30;20.55;;;6.72;;
23838;SDS011;12100;44.384;20.272;2022-08-20T04:43:56;14.85;;;7.05;;
23838;SDS011;12100;44.384;20.272;2022-08-20T04:46:23;14.57;;;7.22;;
23838;SDS011;12100;44.384;20.272;2022-08-20T04:48:52;18.73;;;7.00;;
23838;SDS011;12100;44.384;20.272;2022-08-20T04:51:19;13.63;;;7.03;;
23838;SDS011;12100;44.384;20.272;2022-08-20T04:53:45;14.20;;;6.93;;
23838;SDS011;12100;44.384;20.272;2022-08-20T04:56:11;13.27;;;6.88;;
23838;SDS011;12100;44.384;20.272;2022-08-20T04:58:37;16.42;;;7.95;;
23838;SDS011;12100;44.384;20.272;2022-08-20T05:01:08;13.05;;;6.57;;
23838;SDS011;12100;44.384;20.272;2022-08-20T05:03:38;11.77;;;6.22;;
23838;SDS011;12100;44.384;20.272;2022-08-20T05:06:06;16.15;;;6.32;;
23838;SDS011;12100;44.384;20.272;2022-08-20T05:08:33;14.45;;;6.65;;
23838;SDS011;12100;44.384;20.272;2022-08-20T05:11:00;14.30;;;5.25;;
23838;SDS011;12100;44.384;20.272;2022-08-20T05:13:27;14.95;;;5.68;;
23838;SDS011;12100;44.384;20.272;2022-08-20T05:15:53;9.38;;;5.10;;
23838;SDS011;12100;44.384;20.272;2022-08-20T05:18:20;9.95;;;5.60;;
23838;SDS011;12100;44.384;20.272;2022-08-20T05:20:49;12.27;;;5.47;;
23838;SDS011;12100;44.384;20.272;2022-08-20T05:23:16;12.63;;;5.55;;
23838;SDS011;12100;44.384;20.272;2022-08-20T05:25:44;15.27;;;5.80;;
23838;SDS011;12100;44.384;20.272;2022-08-20T05:28:25;12.93;;;5.33;;
23838;SDS011;12100;44.384;20.272;2022-08-20T05:30:57;10.75;;;4.85;;
23838;SDS011;12100;44.384;20.272;2022-08-20T05:33:25;9.82;;;5.43;;
23838;SDS011;12100;44.384;20.272;2022-08-20T05:35:52;16.13;;;5.70;;
23838;SDS011;12100;44.384;20.272;2022-08-20T05:38:21;14.00;;;4.90;;
23838;SDS011;12100;44.384;20.272;2022-08-20T05:40:48;12.73;;;5.20;;
23838;SDS011;12100;44.384;20.272;2022-08-20T05:43:15;8.50;;;5.75;;
23838;SDS011;12100;44.384;20.272;2022-08-20T05:45:42;17.60;;;5.90;;
23838;SDS011;12100;44.384;20.272;2022-08-20T05:48:10;14.10;;;5.13;;
23838;SDS011;12100;44.384;20.272;2022-08-20T05:50:41;15.80;;;5.68;;
23838;SDS011;12100;44.384;20.272;2022-08-20T05:53:10;10.02;;;5.70;;
23838;SDS011;12100;44.384;20.272;2022-08-20T05:55:37;11.40;;;5.70;;
23838;SDS011;12100;44.384;20.272;2022-08-20T05:58:05;15.27;;;6.18;;
23838;SDS011;12100;44.384;20.272;2022-08-20T06:00:33;15.40;;;6.38;;
23838;SDS011;12100;44.384;20.272;2022-08-20T06:03:01;11.38;;;5.38;;
23838;SDS011;12100;44.384;20.272;2022-08-20T06:05:45;10.30;;;5.18;;
23838;SDS011;12100;44.384;20.272;2022-08-20T06:08:11;15.82;;;6.60;;
23838;SDS011;12100;44.384;20.272;2022-08-20T06:10:38;10.38;;;5.68;;
23838;SDS011;12100;44.384;20.272;2022-08-20T06:13:05;9.57;;;6.13;;
23838;SDS011;12100;44.384;20.272;2022-08-20T06:15:31;21.17;;;6.80;;
23838;SDS011;12100;44.384;20.272;2022-08-20T06:17:57;13.60;;;7.13;;
23838;SDS011;12100;44.384;20.272;2022-08-20T06:20:23;17.65;;;7.00;;
23838;SDS011;12100;44.384;20.272;2022-08-20T06:22:50;13.38;;;5.97;;
23838;SDS011;12100;44.384;20.272;2022-08-20T06:25:16;19.08;;;6.60;;
23838;SDS011;12100;44.384;20.272;2022-08-20T06:27:42;20.23;;;7.25;;
23838;SDS011;12100;44.384;20.272;2022-08-20T06:30:09;16.67;;;7.93;;
23838;SDS011;12100;44.384;20.272;2022-08-20T06:32:36;16.92;;;7.28;;
23838;SDS011;12100;44.384;20.272;2022-08-20T06:35:04;17.95;;;6.85;;
23838;SDS011;12100;44.384;20.272;2022-08-20T06:37:31;13.13;;;6.32;;
23838;SDS011;12100;44.384;20.272;2022-08-20T06:40:08;16.33;;;7.13;;
23838;SDS011;12100;44.384;20.272;2022-08-20T06:42:39;12.05;;;7.00;;
23838;SDS011;12100;44.384;20.272;2022-08-20T06:45:07;14.88;;;7.05;;
23838;SDS011;12100;44.384;20.272;2022-08-20T06:47:35;18.52;;;7.70;;
23838;SDS011;12100;44.384;20.272;2022-08-20T06:50:06;19.65;;;7.95;;
23838;SDS011;12100;44.384;20.272;2022-08-20T06:52:33;15.10;;;8.10;;
23838;SDS011;12100;44.384;20.272;2022-08-20T06:54:59;12.93;;;7.20;;
23838;SDS011;12100;44.384;20.272;2022-08-20T06:57:25;14.05;;;7.88;;
23838;SDS011;12100;44.384;20.272;2022-08-20T06:59:53;14.20;;;6.78;;
23838;SDS011;12100;44.384;20.272;2022-08-20T07:02:19;16.42;;;7.45;;
23838;SDS011;12100;44.384;20.272;2022-08-20T07:04:45;14.77;;;6.68;;
23838;SDS011;12100;44.384;20.272;2022-08-20T07:07:16;17.08;;;7.43;;
23838;SDS011;12100;44.384;20.272;2022-08-20T07:09:42;21.88;;;8.48;;
23838;SDS011;12100;44.384;20.272;2022-08-20T07:12:09;14.82;;;6.95;;
23838;SDS011;12100;44.384;20.272;2022-08-20T07:14:39;14.68;;;6.60;;
23838;SDS011;12100;44.384;20.272;2022-08-20T07:17:06;14.98;;;6.75;;
23838;SDS011;12100;44.384;20.272;2022-08-20T07:19:32;12.43;;;5.93;;
23838;SDS011;12100;44.384;20.272;2022-08-20T07:21:57;13.32;;;5.53;;
23838;SDS011;12100;44.384;20.272;2022-08-20T07:24:23;13.45;;;5.70;;
23838;SDS011;12100;44.384;20.272;2022-08-20T07:26:49;16.52;;;7.68;;
23838;SDS011;12100;44.384;20.272;2022-08-20T07:29:16;17.58;;;6.90;;
23838;SDS011;12100;44.384;20.272;2022-08-20T07:31:43;13.23;;;7.13;;
23838;SDS011;12100;44.384;20.272;2022-08-20T07:34:27;15.45;;;6.80;;
23838;SDS011;12100;44.384;20.272;2022-08-20T07:36:57;12.73;;;6.07;;
23838;SDS011;12100;44.384;20.272;2022-08-20T07:39:24;19.33;;;6.75;;
23838;SDS011;12100;44.384;20.272;2022-08-20T07:41:50;15.90;;;6.55;;
23838;SDS011;12100;44.384;20.272;2022-08-20T07:44:27;13.00;;;5.72;;
23838;SDS011;12100;44.384;20.272;2022-08-20T07:46:54;15.65;;;5.78;;
23838;SDS011;12100;44.384;20.272;2022-08-20T07:49:22;10.13;;;5.57;;
23838;SDS011;12100;44.384;20.272;2022-08-20T07:51:48;15.63;;;6.65;;
23838;SDS011;12100;44.384;20.272;2022-08-20T07:54:14;12.05;;;5.80;;
23838;SDS011;12100;44.384;20.272;2022-08-20T07:56:39;15.45;;;7.05;;
23838;SDS011;12100;44.384;20.272;2022-08-20T07:59:05;14.18;;;6.15;;
23838;SDS011;12100;44.384;20.272;2022-08-20T08:01:31;13.38;;;6.38;;
23838;SDS011;12100;44.384;20.272;2022-08-20T08:03:58;14.98;;;6.45;;
23838;SDS011;12100;44.384;20.272;2022-08-20T08:06:25;16.63;;;6.65;;
23838;SDS011;12100;44.384;20.272;2022-08-20T08:08:52;16.48;;;7.20;;
23838;SDS011;12100;44.384;20.272;2022-08-20T08:11:18;16.70;;;6.50;;
23838;SDS011;12100;44.384;20.272;2022-08-20T08:13:44;14.75;;;6.47;;
23838;SDS011;12100;44.384;20.272;2022-08-20T08:16:12;16.40;;;6.82;;
23838;SDS011;12100;44.384;20.272;2022-08-20T08:18:43;11.68;;;5.60;;
23838;SDS011;12100;44.384;20.272;2022-08-20T08:21:13;11.98;;;6.03;;
23838;SDS011;12100;44.384;20.272;2022-08-20T08:23:41;16.10;;;6.93;;
23838;SDS011;12100;44.384;20.272;2022-08-20T08:26:09;12.27;;;7.35;;
23838;SDS011;12100;44.384;20.272;2022-08-20T08:28:36;14.73;;;6.53;;
23838;SDS011;12100;44.384;20.272;2022-08-20T08:31:03;12.63;;;7.28;;
23838;SDS011;12100;44.384;20.272;2022-08-20T08:33:30;18.00;;;7.32;;
23838;SDS011;12100;44.384;20.272;2022-08-20T08:36:01;14.88;;;6.53;;
23838;SDS011;12100;44.384;20.272;2022-08-20T08:38:29;17.20;;;6.32;;
23838;SDS011;12100;44.384;20.272;2022-08-20T08:41:01;15.48;;;6.47;;
23838;SDS011;12100;44.384;20.272;2022-08-20T08:43:40;11.63;;;5.93;;
23838;SDS011;12100;44.384;20.272;2022-08-20T08:46:08;18.58;;;6.43;;
23838;SDS011;12100;44.384;20.272;2022-08-20T08:48:36;15.68;;;6.82;;
23838;SDS011;12100;44.384;20.272;2022-08-20T08:51:08;12.93;;;6.68;;
23838;SDS011;12100;44.384;20.272;2022-08-20T08:53:41;16.17;;;7.38;;
23838;SDS011;12100;44.384;20.272;2022-08-20T08:56:15;12.63;;;6.15;;
23838;SDS011;12100;44.384;20.272;2022-08-20T08:58:41;15.48;;;6.00;;
23838;SDS011;12100;44.384;20.272;2022-08-20T09:01:13;16.73;;;6.25;;
23838;SDS011;12100;44.384;20.272;2022-08-20T09:03:45;14.82;;;6.03;;
23838;SDS011;12100;44.384;20.272;2022-08-20T09:06:21;13.95;;;6.57;;
23838;SDS011;12100;44.384;20.272;2022-08-20T09:08:52;16.45;;;7.05;;
23838;SDS011;12100;44.384;20.272;2022-08-20T09:13:48;16.75;;;6.97;;
23838;SDS011;12100;44.384;20.272;2022-08-20T09:16:15;16.13;;;6.47;;
23838;SDS011;12100;44.384;20.272;2022-08-20T09:18:42;19.92;;;6.50;;
23838;SDS011;12100;44.384;20.272;2022-08-20T09:21:08;15.73;;;7.03;;
23838;SDS011;12100;44.384;20.272;2022-08-20T09:23:35;13.93;;;7.28;;
23838;SDS011;12100;44.384;20.272;2022-08-20T09:26:01;18.75;;;7.30;;
23838;SDS011;12100;44.384;20.272;2022-08-20T09:28:27;20.50;;;8.25;;
23838;SDS011;12100;44.384;20.272;2022-08-20T09:30:53;18.27;;;7.57;;
23838;SDS011;12100;44.384;20.272;2022-08-20T09:33:19;16.95;;;8.32;;
23838;SDS011;12100;44.384;20.272;2022-08-20T09:35:45;16.73;;;8.50;;
23838;SDS011;12100;44.384;20.272;2022-08-20T09:38:12;21.45;;;9.70;;
23838;SDS011;12100;44.384;20.272;2022-08-20T09:40:38;23.38;;;10.38;;
23838;SDS011;12100;44.384;20.272;2022-08-20T09:43:05;16.15;;;10.20;;
23838;SDS011;12100;44.384;20.272;2022-08-20T09:45:31;26.05;;;10.40;;
23838;SDS011;12100;44.384;20.272;2022-08-20T09:47:57;32.08;;;10.50;;
23838;SDS011;12100;44.384;20.272;2022-08-20T09:50:24;23.33;;;10.52;;
23838;SDS011;12100;44.384;20.272;2022-08-20T09:52:51;20.48;;;10.75;;
23838;SDS011;12100;44.384;20.272;2022-08-20T09:55:33;20.98;;;10.13;;
23838;SDS011;12100;44.384;20.272;2022-08-20T09:58:03;24.52;;;12.13;;
23838;SDS011;12100;44.384;20.272;2022-08-20T10:00:33;24.30;;;11.85;;
23838;SDS011;12100;44.384;20.272;2022-08-20T10:02:59;22.48;;;11.05;;
23838;SDS011;12100;44.384;20.272;2022-08-20T10:05:27;24.05;;;12.30;;
23838;SDS011;12100;44.384;20.272;2022-08-20T10:07:53;31.00;;;13.00;;
23838;SDS011;12100;44.384;20.272;2022-08-20T10:10:19;27.85;;;13.13;;
23838;SDS011;12100;44.384;20.272;2022-08-20T10:12:45;22.42;;;11.10;;
23838;SDS011;12100;44.384;20.272;2022-08-20T10:15:11;21.08;;;13.48;;
23838;SDS011;12100;44.384;20.272;2022-08-20T10:17:37;21.70;;;13.95;;
23838;SDS011;12100;44.384;20.272;2022-08-20T10:20:04;24.73;;;12.02;;
23838;SDS011;12100;44.384;20.272;2022-08-20T10:22:31;25.00;;;15.50;;
23838;SDS011;12100;44.384;20.272;2022-08-20T10:24:57;24.80;;;15.10;;
23838;SDS011;12100;44.384;20.272;2022-08-20T10:27:23;18.95;;;13.18;;
23838;SDS011;12100;44.384;20.272;2022-08-20T10:29:49;21.42;;;11.75;;
23838;SDS011;12100;44.384;20.272;2022-08-20T10:32:15;17.77;;;13.18;;
23838;SDS011;12100;44.384;20.272;2022-08-20T10:34:41;18.55;;;10.70;;
23838;SDS011;12100;44.384;20.272;2022-08-20T10:37:12;20.80;;;9.88;;
23838;SDS011;12100;44.384;20.272;2022-08-20T10:39:40;12.13;;;9.65;;
23838;SDS011;12100;44.384;20.272;2022-08-20T10:42:05;14.10;;;8.05;;
23838;SDS011;12100;44.384;20.272;2022-08-20T10:44:31;16.60;;;10.95;;
23838;SDS011;12100;44.384;20.272;2022-08-20T10:46:57;18.08;;;11.75;;
23838;SDS011;12100;44.384;20.272;2022-08-20T10:49:23;24.60;;;13.88;;
23838;SDS011;12100;44.384;20.272;2022-08-20T10:51:49;20.95;;;12.90;;
23838;SDS011;12100;44.384;20.272;2022-08-20T10:54:14;19.23;;;13.07;;
23838;SDS011;12100;44.384;20.272;2022-08-20T10:59:40;23.38;;;13.80;;
23838;SDS011;12100;44.384;20.272;2022-08-20T11:02:08;24.77;;;13.82;;
23838;SDS011;12100;44.384;20.272;2022-08-20T11:04:34;17.05;;;12.93;;
23838;SDS011;12100;44.384;20.272;2022-08-20T11:07:14;20.67;;;12.45;;
23838;SDS011;12100;44.384;20.272;2022-08-20T11:09:46;22.13;;;12.57;;
23838;SDS011;12100;44.384;20.272;2022-08-20T11:12:13;25.75;;;12.13;;
23838;SDS011;12100;44.384;20.272;2022-08-20T11:14:39;17.42;;;11.00;;
23838;SDS011;12100;44.384;20.272;2022-08-20T11:17:06;22.75;;;14.32;;
23838;SDS011;12100;44.384;20.272;2022-08-20T11:19:32;55.30;;;37.38;;
23838;SDS011;12100;44.384;20.272;2022-08-20T11:22:06;20.80;;;14.43;;
23838;SDS011;12100;44.384;20.272;2022-08-20T11:24:32;79.25;;;55.80;;
23838;SDS011;12100;44.384;20.272;2022-08-20T11:27:00;43.42;;;31.30;;
23838;SDS011;12100;44.384;20.272;2022-08-20T11:29:26;57.17;;;40.05;;
23838;SDS011;12100;44.384;20.272;2022-08-20T11:31:52;26.85;;;17.38;;
23838;SDS011;12100;44.384;20.272;2022-08-20T11:34:18;20.05;;;14.88;;
23838;SDS011;12100;44.384;20.272;2022-08-20T11:36:44;18.77;;;15.25;;
23838;SDS011;12100;44.384;20.272;2022-08-20T11:39:12;22.88;;;14.13;;
23838;SDS011;12100;44.384;20.272;2022-08-20T11:41:38;18.10;;;14.32;;
23838;SDS011;12100;44.384;20.272;2022-08-20T11:44:04;25.77;;;15.52;;
23838;SDS011;12100;44.384;20.272;2022-08-20T11:46:30;18.88;;;13.55;;
23838;SDS011;12100;44.384;20.272;2022-08-20T11:52:12;20.20;;;14.90;;
23838;SDS011;12100;44.384;20.272;2022-08-20T11:54:38;25.17;;;15.35;;
23838;SDS011;12100;44.384;20.272;2022-08-20T11:57:06;19.60;;;14.88;;
23838;SDS011;12100;44.384;20.272;2022-08-20T11:59:32;18.98;;;14.18;;
23838;SDS011;12100;44.384;20.272;2022-08-20T12:01:58;20.10;;;14.32;;
23838;SDS011;12100;44.384;20.272;2022-08-20T12:04:25;20.08;;;12.88;;
23838;SDS011;12100;44.384;20.272;2022-08-20T12:06:51;20.10;;;13.50;;
23838;SDS011;12100;44.384;20.272;2022-08-20T12:09:17;24.08;;;14.55;;
23838;SDS011;12100;44.384;20.272;2022-08-20T12:11:42;20.23;;;14.43;;
23838;SDS011;12100;44.384;20.272;2022-08-20T12:14:10;21.98;;;14.52;;
23838;SDS011;12100;44.384;20.272;2022-08-20T12:16:36;21.38;;;13.02;;
23838;SDS011;12100;44.384;20.272;2022-08-20T12:19:02;27.77;;;15.18;;
23838;SDS011;12100;44.384;20.272;2022-08-20T12:21:28;18.20;;;13.45;;
23838;SDS011;12100;44.384;20.272;2022-08-20T12:23:54;18.90;;;12.77;;
23838;SDS011;12100;44.384;20.272;2022-08-20T12:26:20;17.83;;;12.13;;
23838;SDS011;12100;44.384;20.272;2022-08-20T12:28:45;19.20;;;13.52;;
23838;SDS011;12100;44.384;20.272;2022-08-20T12:31:11;16.95;;;12.82;;
23838;SDS011;12100;44.384;20.272;2022-08-20T12:33:37;17.98;;;12.43;;
23838;SDS011;12100;44.384;20.272;2022-08-20T12:36:03;17.33;;;12.07;;
23838;SDS011;12100;44.384;20.272;2022-08-20T12:38:30;19.33;;;13.13;;
23838;SDS011;12100;44.384;20.272;2022-08-20T12:40:55;18.20;;;12.65;;
23838;SDS011;12100;44.384;20.272;2022-08-20T12:43:21;17.15;;;12.52;;
23838;SDS011;12100;44.384;20.272;2022-08-20T12:45:47;17.38;;;11.43;;
23838;SDS011;12100;44.384;20.272;2022-08-20T12:48:13;15.18;;;11.70;;
23838;SDS011;12100;44.384;20.272;2022-08-20T12:50:41;14.95;;;13.25;;
23838;SDS011;12100;44.384;20.272;2022-08-20T12:53:07;20.48;;;13.82;;
23838;SDS011;12100;44.384;20.272;2022-08-20T12:55:33;21.27;;;14.75;;
23838;SDS011;12100;44.384;20.272;2022-08-20T12:58:00;19.88;;;14.48;;
23838;SDS011;12100;44.384;20.272;2022-08-20T13:00:29;20.30;;;15.85;;
23838;SDS011;12100;44.384;20.272;2022-08-20T13:02:57;23.95;;;14.68;;
23838;SDS011;12100;44.384;20.272;2022-08-20T13:05:25;21.20;;;16.83;;
23838;SDS011;12100;44.384;20.272;2022-08-20T13:07:52;20.80;;;16.90;;
23838;SDS011;12100;44.384;20.272;2022-08-20T13:10:23;25.38;;;16.70;;
23838;SDS011;12100;44.384;20.272;2022-08-20T13:12:51;22.55;;;17.80;;
23838;SDS011;12100;44.384;20.272;2022-08-20T13:15:17;28.63;;;18.45;;
23838;SDS011;12100;44.384;20.272;2022-08-20T13:17:43;21.83;;;18.05;;
23838;SDS011;12100;44.384;20.272;2022-08-20T13:20:11;27.05;;;19.38;;
23838;SDS011;12100;44.384;20.272;2022-08-20T13:22:39;25.42;;;17.88;;
23838;SDS011;12100;44.384;20.272;2022-08-20T13:25:06;20.10;;;17.38;;
23838;SDS011;12100;44.384;20.272;2022-08-20T13:27:33;20.38;;;16.88;;
23838;SDS011;12100;44.384;20.272;2022-08-20T13:30:03;24.27;;;17.13;;
23838;SDS011;12100;44.384;20.272;2022-08-20T13:32:30;19.73;;;16.88;;
23838;SDS011;12100;44.384;20.272;2022-08-20T13:34:56;18.45;;;16.52;;
23838;SDS011;12100;44.384;20.272;2022-08-20T13:37:23;20.33;;;17.45;;
23838;SDS011;12100;44.384;20.272;2022-08-20T13:39:51;22.63;;;19.65;;
23838;SDS011;12100;44.384;20.272;2022-08-20T13:42:17;21.45;;;19.15;;
23838;SDS011;12100;44.384;20.272;2022-08-20T13:44:43;25.05;;;21.25;;
23838;SDS011;12100;44.384;20.272;2022-08-20T13:47:29;26.90;;;21.70;;
23838;SDS011;12100;44.384;20.272;2022-08-20T13:50:04;24.83;;;22.17;;
23838;SDS011;12100;44.384;20.272;2022-08-20T13:52:32;27.35;;;24.33;;
23838;SDS011;12100;44.384;20.272;2022-08-20T13:54:58;33.00;;;26.27;;
23838;SDS011;12100;44.384;20.272;2022-08-20T13:57:24;28.92;;;25.85;;
23838;SDS011;12100;44.384;20.272;2022-08-20T13:59:51;34.05;;;29.00;;
23838;SDS011;12100;44.384;20.272;2022-08-20T14:02:19;36.30;;;32.13;;
23838;SDS011;12100;44.384;20.272;2022-08-20T14:04:45;23.38;;;20.67;;
23838;SDS011;12100;44.384;20.272;2022-08-20T14:07:14;27.20;;;19.05;;
23838;SDS011;12100;44.384;20.272;2022-08-20T14:09:42;22.20;;;16.75;;
23838;SDS011;12100;44.384;20.272;2022-08-20T14:12:11;20.98;;;15.45;;
23838;SDS011;12100;44.384;20.272;2022-08-20T14:14:38;21.52;;;15.60;;
23838;SDS011;12100;44.384;20.272;2022-08-20T14:17:14;21.65;;;16.15;;
23838;SDS011;12100;44.384;20.272;2022-08-20T14:19:44;20.45;;;15.95;;
23838;SDS011;12100;44.384;20.272;2022-08-20T14:22:11;20.40;;;14.82;;
23838;SDS011;12100;44.384;20.272;2022-08-20T14:24:37;17.80;;;14.75;;
23838;SDS011;12100;44.384;20.272;2022-08-20T14:27:04;20.35;;;13.45;;
23838;SDS011;12100;44.384;20.272;2022-08-20T14:29:34;22.83;;;13.60;;
23838;SDS011;12100;44.384;20.272;2022-08-20T14:32:02;15.73;;;13.10;;
23838;SDS011;12100;44.384;20.272;2022-08-20T14:34:29;19.15;;;13.18;;
23838;SDS011;12100;44.384;20.272;2022-08-20T14:36:56;20.15;;;12.95;;
23838;SDS011;12100;44.384;20.272;2022-08-20T14:39:23;18.50;;;14.57;;